sensor_id;sensor_type;location;lat;lon;timestamp;P1;durP1;ratioP1;P2;durP2;ratioP2
26413;SDS011;14108;53.668;10.288;2022-11-06T00:00:54;8.10;;;4.25;;
26413;SDS011;14108;53.668;10.288;2022-11-06T00:03:21;9.48;;;4.95;;
26413;SDS011;14108;53.668;10.288;2022-11-06T00:05:50;8.43;;;5.28;;
26413;SDS011;14108;53.668;10.288;2022-11-06T00:08:36;8.57;;;5.37;;
26413;SDS011;14108;53.668;10.288;2022-11-06T00:11:09;7.93;;;4.50;;
26413;SDS011;14108;53.668;10.288;2022-11-06T00:13:38;6.03;;;4.32;;
26413;SDS011;14108;53.668;10.288;2022-11-06T00:16:07;11.95;;;4.95;;
26413;SDS011;14108;53.668;10.288;2022-11-06T00:18:36;6.97;;;4.40;;
26413;SDS011;14108;53.668;10.288;2022-11-06T00:21:07;11.15;;;4.47;;
26413;SDS011;14108;53.668;10.288;2022-11-06T00:23:40;7.03;;;3.97;;
26413;SDS011;14108;53.668;10.288;2022-11-06T00:26:10;7.70;;;4.50;;
26413;SDS011;14108;53.668;10.288;2022-11-06T00:28:39;7.60;;;4.68;;
26413;SDS011;14108;53.668;10.288;2022-11-06T00:31:07;8.18;;;4.43;;
26413;SDS011;14108;53.668;10.288;2022-11-06T00:33:35;8.52;;;4.40;;
26413;SDS011;14108;53.668;10.288;2022-11-06T00:36:03;7.28;;;4.60;;
26413;SDS011;14108;53.668;10.288;2022-11-06T00:38:32;8.73;;;4.30;;
26413;SDS011;14108;53.668;10.288;2022-11-06T00:43:36;10.82;;;4.55;;
26413;SDS011;14108;53.668;10.288;2022-11-06T00:46:04;6.87;;;4.75;;
26413;SDS011;14108;53.668;10.288;2022-11-06T00:48:33;6.72;;;4.78;;
26413;SDS011;14108;53.668;10.288;2022-11-06T00:51:01;11.35;;;4.43;;
26413;SDS011;14108;53.668;10.288;2022-11-06T00:53:29;13.15;;;4.87;;
26413;SDS011;14108;53.668;10.288;2022-11-06T00:56:02;9.98;;;4.60;;
26413;SDS011;14108;53.668;10.288;2022-11-06T00:58:30;6.57;;;4.20;;
26413;SDS011;14108;53.668;10.288;2022-11-06T01:01:04;5.70;;;4.28;;
26413;SDS011;14108;53.668;10.288;2022-11-06T01:03:33;6.97;;;3.72;;
26413;SDS011;14108;53.668;10.288;2022-11-06T01:06:05;6.82;;;4.07;;
26413;SDS011;14108;53.668;10.288;2022-11-06T01:08:34;7.28;;;3.72;;
26413;SDS011;14108;53.668;10.288;2022-11-06T01:11:11;5.82;;;4.28;;
26413;SDS011;14108;53.668;10.288;2022-11-06T01:13:40;7.03;;;4.65;;
26413;SDS011;14108;53.668;10.288;2022-11-06T01:16:10;6.05;;;3.53;;
26413;SDS011;14108;53.668;10.288;2022-11-06T01:18:39;6.97;;;3.85;;
26413;SDS011;14108;53.668;10.288;2022-11-06T01:21:08;5.70;;;3.50;;
26413;SDS011;14108;53.668;10.288;2022-11-06T01:23:37;8.00;;;4.12;;
26413;SDS011;14108;53.668;10.288;2022-11-06T01:26:05;5.18;;;3.53;;
26413;SDS011;14108;53.668;10.288;2022-11-06T01:28:33;4.50;;;3.85;;
26413;SDS011;14108;53.668;10.288;2022-11-06T01:31:01;6.07;;;3.67;;
26413;SDS011;14108;53.668;10.288;2022-11-06T01:33:30;8.38;;;4.15;;
26413;SDS011;14108;53.668;10.288;2022-11-06T01:35:57;7.40;;;4.18;;
26413;SDS011;14108;53.668;10.288;2022-11-06T01:38:24;7.53;;;3.40;;
26413;SDS011;14108;53.668;10.288;2022-11-06T01:40:52;6.85;;;3.92;;
26413;SDS011;14108;53.668;10.288;2022-11-06T01:43:20;6.80;;;4.05;;
26413;SDS011;14108;53.668;10.288;2022-11-06T01:45:49;6.32;;;4.07;;
26413;SDS011;14108;53.668;10.288;2022-11-06T01:48:19;7.05;;;4.00;;
26413;SDS011;14108;53.668;10.288;2022-11-06T01:50:51;8.82;;;4.05;;
26413;SDS011;14108;53.668;10.288;2022-11-06T01:53:21;7.62;;;3.70;;
26413;SDS011;14108;53.668;10.288;2022-11-06T01:55:51;10.50;;;3.80;;
26413;SDS011;14108;53.668;10.288;2022-11-06T01:58:21;7.82;;;3.62;;
26413;SDS011;14108;53.668;10.288;2022-11-06T02:00:51;5.87;;;3.22;;
26413;SDS011;14108;53.668;10.288;2022-11-06T02:03:19;6.32;;;3.17;;
26413;SDS011;14108;53.668;10.288;2022-11-06T02:05:46;7.10;;;3.45;;
26413;SDS011;14108;53.668;10.288;2022-11-06T02:08:15;5.75;;;3.90;;
26413;SDS011;14108;53.668;10.288;2022-11-06T02:10:44;7.35;;;3.55;;
26413;SDS011;14108;53.668;10.288;2022-11-06T02:13:16;5.78;;;3.70;;
26413;SDS011;14108;53.668;10.288;2022-11-06T02:15:54;6.12;;;3.85;;
26413;SDS011;14108;53.668;10.288;2022-11-06T02:18:36;8.40;;;3.85;;
26413;SDS011;14108;53.668;10.288;2022-11-06T02:27:31;5.70;;;3.83;;
26413;SDS011;14108;53.668;10.288;2022-11-06T02:30:01;7.50;;;3.40;;
26413;SDS011;14108;53.668;10.288;2022-11-06T02:32:31;5.50;;;3.37;;
26413;SDS011;14108;53.668;10.288;2022-11-06T02:35:08;11.18;;;5.03;;
26413;SDS011;14108;53.668;10.288;2022-11-06T02:37:48;9.00;;;4.10;;
26413;SDS011;14108;53.668;10.288;2022-11-06T02:40:19;6.00;;;3.80;;
26413;SDS011;14108;53.668;10.288;2022-11-06T02:42:50;6.90;;;3.92;;
26413;SDS011;14108;53.668;10.288;2022-11-06T02:45:20;5.43;;;3.78;;
26413;SDS011;14108;53.668;10.288;2022-11-06T02:47:49;7.40;;;4.40;;
26413;SDS011;14108;53.668;10.288;2022-11-06T02:50:29;7.80;;;4.12;;
26413;SDS011;14108;53.668;10.288;2022-11-06T02:53:01;6.12;;;4.30;;
26413;SDS011;14108;53.668;10.288;2022-11-06T02:55:32;9.02;;;4.22;;
26413;SDS011;14108;53.668;10.288;2022-11-06T02:58:03;6.37;;;3.50;;
26413;SDS011;14108;53.668;10.288;2022-11-06T03:00:34;8.15;;;3.40;;
26413;SDS011;14108;53.668;10.288;2022-11-06T03:03:04;5.37;;;3.62;;
26413;SDS011;14108;53.668;10.288;2022-11-06T03:05:38;7.25;;;3.70;;
26413;SDS011;14108;53.668;10.288;2022-11-06T03:08:12;6.95;;;4.28;;
26413;SDS011;14108;53.668;10.288;2022-11-06T03:10:44;7.18;;;3.95;;
26413;SDS011;14108;53.668;10.288;2022-11-06T03:13:27;6.30;;;3.33;;
26413;SDS011;14108;53.668;10.288;2022-11-06T03:16:05;6.50;;;3.78;;
26413;SDS011;14108;53.668;10.288;2022-11-06T03:18:42;5.10;;;3.50;;
26413;SDS011;14108;53.668;10.288;2022-11-06T03:21:20;5.07;;;3.55;;
26413;SDS011;14108;53.668;10.288;2022-11-06T03:23:52;8.95;;;4.07;;
26413;SDS011;14108;53.668;10.288;2022-11-06T03:26:24;5.30;;;3.80;;
26413;SDS011;14108;53.668;10.288;2022-11-06T03:28:56;9.20;;;4.00;;
26413;SDS011;14108;53.668;10.288;2022-11-06T03:31:28;5.47;;;3.67;;
26413;SDS011;14108;53.668;10.288;2022-11-06T03:34:01;8.85;;;3.72;;
26413;SDS011;14108;53.668;10.288;2022-11-06T03:36:33;7.85;;;4.15;;
26413;SDS011;14108;53.668;10.288;2022-11-06T03:39:05;8.93;;;3.92;;
26413;SDS011;14108;53.668;10.288;2022-11-06T03:41:36;9.13;;;3.60;;
26413;SDS011;14108;53.668;10.288;2022-11-06T03:44:08;10.25;;;3.97;;
26413;SDS011;14108;53.668;10.288;2022-11-06T03:46:38;9.98;;;3.37;;
26413;SDS011;14108;53.668;10.288;2022-11-06T03:49:11;6.43;;;3.10;;
26413;SDS011;14108;53.668;10.288;2022-11-06T03:51:43;8.02;;;3.50;;
26413;SDS011;14108;53.668;10.288;2022-11-06T03:54:17;6.50;;;3.83;;
26413;SDS011;14108;53.668;10.288;2022-11-06T03:56:50;5.90;;;3.37;;
26413;SDS011;14108;53.668;10.288;2022-11-06T03:59:21;5.68;;;3.60;;
26413;SDS011;14108;53.668;10.288;2022-11-06T04:01:52;5.82;;;3.72;;
26413;SDS011;14108;53.668;10.288;2022-11-06T04:04:23;4.45;;;3.15;;
26413;SDS011;14108;53.668;10.288;2022-11-06T04:06:55;6.32;;;3.35;;
26413;SDS011;14108;53.668;10.288;2022-11-06T04:12:16;7.32;;;3.60;;
26413;SDS011;14108;53.668;10.288;2022-11-06T04:15:12;4.78;;;2.97;;
26413;SDS011;14108;53.668;10.288;2022-11-06T04:17:42;6.47;;;3.08;;
26413;SDS011;14108;53.668;10.288;2022-11-06T04:20:11;6.95;;;3.55;;
26413;SDS011;14108;53.668;10.288;2022-11-06T04:23:47;7.18;;;3.17;;
26413;SDS011;14108;53.668;10.288;2022-11-06T04:26:46;7.68;;;3.58;;
26413;SDS011;14108;53.668;10.288;2022-11-06T04:29:24;6.25;;;3.08;;
26413;SDS011;14108;53.668;10.288;2022-11-06T04:32:01;4.97;;;3.15;;
26413;SDS011;14108;53.668;10.288;2022-11-06T04:34:37;7.78;;;3.45;;
26413;SDS011;14108;53.668;10.288;2022-11-06T04:37:10;5.07;;;3.72;;
26413;SDS011;14108;53.668;10.288;2022-11-06T04:39:47;7.57;;;3.87;;
26413;SDS011;14108;53.668;10.288;2022-11-06T04:42:22;6.00;;;4.15;;
26413;SDS011;14108;53.668;10.288;2022-11-06T04:44:57;6.15;;;3.78;;
26413;SDS011;14108;53.668;10.288;2022-11-06T04:49:56;7.43;;;4.03;;
26413;SDS011;14108;53.668;10.288;2022-11-06T04:52:27;6.03;;;4.15;;
26413;SDS011;14108;53.668;10.288;2022-11-06T04:54:55;7.05;;;3.53;;
26413;SDS011;14108;53.668;10.288;2022-11-06T04:57:24;6.85;;;3.25;;
26413;SDS011;14108;53.668;10.288;2022-11-06T04:59:51;5.20;;;3.22;;
26413;SDS011;14108;53.668;10.288;2022-11-06T05:02:21;5.25;;;3.30;;
26413;SDS011;14108;53.668;10.288;2022-11-06T05:04:48;4.28;;;3.00;;
26413;SDS011;14108;53.668;10.288;2022-11-06T05:07:15;6.10;;;4.07;;
26413;SDS011;14108;53.668;10.288;2022-11-06T05:09:43;7.68;;;3.72;;
26413;SDS011;14108;53.668;10.288;2022-11-06T05:12:10;8.75;;;3.42;;
26413;SDS011;14108;53.668;10.288;2022-11-06T05:14:38;6.82;;;3.90;;
26413;SDS011;14108;53.668;10.288;2022-11-06T05:17:05;5.25;;;3.60;;
26413;SDS011;14108;53.668;10.288;2022-11-06T05:19:33;7.28;;;2.95;;
26413;SDS011;14108;53.668;10.288;2022-11-06T05:22:00;4.97;;;3.20;;
26413;SDS011;14108;53.668;10.288;2022-11-06T05:24:45;7.37;;;3.83;;
26413;SDS011;14108;53.668;10.288;2022-11-06T05:27:13;6.65;;;3.28;;
26413;SDS011;14108;53.668;10.288;2022-11-06T05:29:40;8.13;;;3.28;;
26413;SDS011;14108;53.668;10.288;2022-11-06T05:32:07;6.75;;;3.30;;
26413;SDS011;14108;53.668;10.288;2022-11-06T05:34:35;5.55;;;3.20;;
26413;SDS011;14108;53.668;10.288;2022-11-06T05:37:02;7.28;;;3.85;;
26413;SDS011;14108;53.668;10.288;2022-11-06T05:39:29;6.97;;;3.37;;
26413;SDS011;14108;53.668;10.288;2022-11-06T05:41:56;4.75;;;3.25;;
26413;SDS011;14108;53.668;10.288;2022-11-06T05:44:24;7.10;;;3.12;;
26413;SDS011;14108;53.668;10.288;2022-11-06T05:46:51;5.15;;;3.30;;
26413;SDS011;14108;53.668;10.288;2022-11-06T05:49:18;8.95;;;4.30;;
26413;SDS011;14108;53.668;10.288;2022-11-06T05:51:46;6.85;;;3.30;;
26413;SDS011;14108;53.668;10.288;2022-11-06T05:54:22;7.12;;;3.45;;
26413;SDS011;14108;53.668;10.288;2022-11-06T05:56:50;8.32;;;3.80;;
26413;SDS011;14108;53.668;10.288;2022-11-06T05:59:17;6.70;;;3.70;;
26413;SDS011;14108;53.668;10.288;2022-11-06T06:01:44;9.35;;;2.92;;
26413;SDS011;14108;53.668;10.288;2022-11-06T06:04:12;4.90;;;2.78;;
26413;SDS011;14108;53.668;10.288;2022-11-06T06:06:39;6.15;;;2.97;;
26413;SDS011;14108;53.668;10.288;2022-11-06T06:09:07;6.32;;;3.28;;
26413;SDS011;14108;53.668;10.288;2022-11-06T06:11:34;6.30;;;3.40;;
26413;SDS011;14108;53.668;10.288;2022-11-06T06:14:01;7.32;;;3.30;;
26413;SDS011;14108;53.668;10.288;2022-11-06T06:16:29;5.25;;;3.10;;
26413;SDS011;14108;53.668;10.288;2022-11-06T06:18:56;5.47;;;3.08;;
26413;SDS011;14108;53.668;10.288;2022-11-06T06:21:23;4.18;;;3.00;;
26413;SDS011;14108;53.668;10.288;2022-11-06T06:23:51;8.30;;;3.55;;
26413;SDS011;14108;53.668;10.288;2022-11-06T06:26:18;7.12;;;3.20;;
26413;SDS011;14108;53.668;10.288;2022-11-06T06:28:47;9.60;;;4.18;;
26413;SDS011;14108;53.668;10.288;2022-11-06T06:31:14;5.35;;;2.85;;
26413;SDS011;14108;53.668;10.288;2022-11-06T06:33:42;5.70;;;3.20;;
26413;SDS011;14108;53.668;10.288;2022-11-06T06:36:09;3.70;;;2.70;;
26413;SDS011;14108;53.668;10.288;2022-11-06T06:38:36;6.87;;;3.45;;
26413;SDS011;14108;53.668;10.288;2022-11-06T06:41:05;5.47;;;3.55;;
26413;SDS011;14108;53.668;10.288;2022-11-06T06:43:33;9.20;;;3.00;;
26413;SDS011;14108;53.668;10.288;2022-11-06T06:46:02;6.07;;;3.58;;
26413;SDS011;14108;53.668;10.288;2022-11-06T06:48:30;6.40;;;2.90;;
26413;SDS011;14108;53.668;10.288;2022-11-06T06:50:57;8.00;;;3.47;;
26413;SDS011;14108;53.668;10.288;2022-11-06T06:53:26;6.70;;;2.72;;
26413;SDS011;14108;53.668;10.288;2022-11-06T06:55:54;7.68;;;3.42;;
26413;SDS011;14108;53.668;10.288;2022-11-06T06:58:23;7.70;;;3.00;;
26413;SDS011;14108;53.668;10.288;2022-11-06T07:00:50;6.15;;;3.20;;
26413;SDS011;14108;53.668;10.288;2022-11-06T07:03:17;4.28;;;2.78;;
26413;SDS011;14108;53.668;10.288;2022-11-06T07:05:45;6.30;;;2.90;;
26413;SDS011;14108;53.668;10.288;2022-11-06T07:08:12;4.50;;;3.15;;
26413;SDS011;14108;53.668;10.288;2022-11-06T07:10:39;7.22;;;2.45;;
26413;SDS011;14108;53.668;10.288;2022-11-06T07:13:07;4.97;;;2.97;;
26413;SDS011;14108;53.668;10.288;2022-11-06T07:15:34;7.87;;;2.92;;
26413;SDS011;14108;53.668;10.288;2022-11-06T07:18:02;6.35;;;2.72;;
26413;SDS011;14108;53.668;10.288;2022-11-06T07:20:30;5.20;;;2.97;;
26413;SDS011;14108;53.668;10.288;2022-11-06T07:22:58;4.35;;;2.30;;
26413;SDS011;14108;53.668;10.288;2022-11-06T07:25:31;5.93;;;2.60;;
26413;SDS011;14108;53.668;10.288;2022-11-06T07:27:59;4.00;;;2.78;;
26413;SDS011;14108;53.668;10.288;2022-11-06T07:30:27;3.60;;;2.35;;
26413;SDS011;14108;53.668;10.288;2022-11-06T07:32:54;6.00;;;3.00;;
26413;SDS011;14108;53.668;10.288;2022-11-06T07:35:24;6.62;;;3.10;;
26413;SDS011;14108;53.668;10.288;2022-11-06T07:37:51;11.27;;;3.45;;
26413;SDS011;14108;53.668;10.288;2022-11-06T07:40:18;3.95;;;2.30;;
26413;SDS011;14108;53.668;10.288;2022-11-06T07:42:46;3.60;;;2.62;;
26413;SDS011;14108;53.668;10.288;2022-11-06T07:45:13;5.57;;;2.80;;
26413;SDS011;14108;53.668;10.288;2022-11-06T07:47:49;4.75;;;2.33;;
26413;SDS011;14108;53.668;10.288;2022-11-06T07:50:17;5.97;;;2.90;;
26413;SDS011;14108;53.668;10.288;2022-11-06T07:52:44;9.15;;;2.45;;
26413;SDS011;14108;53.668;10.288;2022-11-06T07:55:11;7.82;;;2.47;;
26413;SDS011;14108;53.668;10.288;2022-11-06T07:57:39;5.18;;;2.42;;
26413;SDS011;14108;53.668;10.288;2022-11-06T08:00:09;4.37;;;2.92;;
26413;SDS011;14108;53.668;10.288;2022-11-06T08:02:37;5.35;;;2.53;;
26413;SDS011;14108;53.668;10.288;2022-11-06T08:05:14;4.07;;;2.28;;
26413;SDS011;14108;53.668;10.288;2022-11-06T08:07:41;5.05;;;2.62;;
26413;SDS011;14108;53.668;10.288;2022-11-06T08:10:09;5.10;;;2.35;;
26413;SDS011;14108;53.668;10.288;2022-11-06T08:12:36;4.95;;;2.30;;
26413;SDS011;14108;53.668;10.288;2022-11-06T08:15:04;5.43;;;2.65;;
26413;SDS011;14108;53.668;10.288;2022-11-06T08:17:33;7.28;;;2.92;;
26413;SDS011;14108;53.668;10.288;2022-11-06T08:20:09;8.63;;;2.70;;
26413;SDS011;14108;53.668;10.288;2022-11-06T08:22:37;8.07;;;2.50;;
26413;SDS011;14108;53.668;10.288;2022-11-06T08:25:13;7.87;;;2.12;;
26413;SDS011;14108;53.668;10.288;2022-11-06T08:27:41;8.30;;;2.65;;
26413;SDS011;14108;53.668;10.288;2022-11-06T08:30:10;7.60;;;2.50;;
26413;SDS011;14108;53.668;10.288;2022-11-06T08:32:38;8.18;;;3.17;;
26413;SDS011;14108;53.668;10.288;2022-11-06T08:35:06;9.55;;;2.87;;
26413;SDS011;14108;53.668;10.288;2022-11-06T08:37:35;4.45;;;2.62;;
26413;SDS011;14108;53.668;10.288;2022-11-06T08:40:03;4.50;;;2.55;;
26413;SDS011;14108;53.668;10.288;2022-11-06T08:42:32;4.32;;;3.12;;
26413;SDS011;14108;53.668;10.288;2022-11-06T08:44:59;7.57;;;2.47;;
26413;SDS011;14108;53.668;10.288;2022-11-06T08:47:26;7.18;;;3.33;;
26413;SDS011;14108;53.668;10.288;2022-11-06T08:49:54;6.03;;;2.92;;
26413;SDS011;14108;53.668;10.288;2022-11-06T08:52:21;6.55;;;2.83;;
26413;SDS011;14108;53.668;10.288;2022-11-06T08:54:48;6.87;;;2.55;;
26413;SDS011;14108;53.668;10.288;2022-11-06T08:57:16;5.03;;;2.53;;
26413;SDS011;14108;53.668;10.288;2022-11-06T09:02:20;3.37;;;2.45;;
26413;SDS011;14108;53.668;10.288;2022-11-06T09:04:47;3.97;;;2.37;;
26413;SDS011;14108;53.668;10.288;2022-11-06T09:07:15;6.87;;;2.22;;
26413;SDS011;14108;53.668;10.288;2022-11-06T09:09:42;5.47;;;2.65;;
26413;SDS011;14108;53.668;10.288;2022-11-06T09:12:10;3.45;;;1.90;;
26413;SDS011;14108;53.668;10.288;2022-11-06T09:17:12;5.07;;;2.60;;
26413;SDS011;14108;53.668;10.288;2022-11-06T09:19:40;4.80;;;2.62;;
26413;SDS011;14108;53.668;10.288;2022-11-06T09:22:08;2.95;;;2.20;;
26413;SDS011;14108;53.668;10.288;2022-11-06T09:24:35;3.03;;;2.05;;
26413;SDS011;14108;53.668;10.288;2022-11-06T09:27:11;2.35;;;1.80;;
26413;SDS011;14108;53.668;10.288;2022-11-06T09:29:38;5.32;;;2.87;;
26413;SDS011;14108;53.668;10.288;2022-11-06T09:32:14;3.70;;;1.95;;
26413;SDS011;14108;53.668;10.288;2022-11-06T09:34:42;4.60;;;2.40;;
26413;SDS011;14108;53.668;10.288;2022-11-06T09:37:09;6.40;;;2.65;;
26413;SDS011;14108;53.668;10.288;2022-11-06T09:39:36;3.92;;;2.30;;
26413;SDS011;14108;53.668;10.288;2022-11-06T09:42:05;5.18;;;2.50;;
26413;SDS011;14108;53.668;10.288;2022-11-06T09:44:49;4.37;;;2.03;;
26413;SDS011;14108;53.668;10.288;2022-11-06T09:47:27;4.28;;;2.30;;
26413;SDS011;14108;53.668;10.288;2022-11-06T09:49:57;5.90;;;2.30;;
26413;SDS011;14108;53.668;10.288;2022-11-06T09:52:28;6.53;;;2.65;;
26413;SDS011;14108;53.668;10.288;2022-11-06T09:54:59;4.05;;;2.03;;
26413;SDS011;14108;53.668;10.288;2022-11-06T09:57:32;4.50;;;2.22;;
26413;SDS011;14108;53.668;10.288;2022-11-06T10:00:06;2.95;;;2.37;;
26413;SDS011;14108;53.668;10.288;2022-11-06T10:05:16;4.05;;;2.50;;
26413;SDS011;14108;53.668;10.288;2022-11-06T10:07:49;5.20;;;2.00;;
26413;SDS011;14108;53.668;10.288;2022-11-06T10:10:20;7.05;;;2.53;;
26413;SDS011;14108;53.668;10.288;2022-11-06T10:12:58;5.12;;;2.10;;
26413;SDS011;14108;53.668;10.288;2022-11-06T10:15:50;4.60;;;2.12;;
26413;SDS011;14108;53.668;10.288;2022-11-06T10:23:40;4.25;;;2.60;;
26413;SDS011;14108;53.668;10.288;2022-11-06T10:26:13;4.00;;;1.92;;
26413;SDS011;14108;53.668;10.288;2022-11-06T10:31:28;4.18;;;2.17;;
26413;SDS011;14108;53.668;10.288;2022-11-06T10:34:03;6.30;;;2.50;;
26413;SDS011;14108;53.668;10.288;2022-11-06T10:36:38;3.12;;;1.98;;
26413;SDS011;14108;53.668;10.288;2022-11-06T10:39:13;7.18;;;2.90;;
26413;SDS011;14108;53.668;10.288;2022-11-06T10:41:45;3.40;;;2.17;;
26413;SDS011;14108;53.668;10.288;2022-11-06T10:44:18;4.68;;;2.55;;
26413;SDS011;14108;53.668;10.288;2022-11-06T10:46:51;3.62;;;2.50;;
26413;SDS011;14108;53.668;10.288;2022-11-06T10:52:08;4.32;;;1.70;;
26413;SDS011;14108;53.668;10.288;2022-11-06T10:54:50;3.47;;;1.87;;
26413;SDS011;14108;53.668;10.288;2022-11-06T10:57:29;6.62;;;2.60;;
26413;SDS011;14108;53.668;10.288;2022-11-06T11:00:03;2.65;;;1.70;;
26413;SDS011;14108;53.668;10.288;2022-11-06T11:02:37;5.95;;;2.58;;
26413;SDS011;14108;53.668;10.288;2022-11-06T11:05:10;2.62;;;2.00;;
26413;SDS011;14108;53.668;10.288;2022-11-06T11:07:39;4.07;;;2.30;;
26413;SDS011;14108;53.668;10.288;2022-11-06T11:10:24;4.22;;;2.03;;
26413;SDS011;14108;53.668;10.288;2022-11-06T11:12:58;5.47;;;2.00;;
26413;SDS011;14108;53.668;10.288;2022-11-06T11:15:27;3.47;;;1.87;;
26413;SDS011;14108;53.668;10.288;2022-11-06T11:18:14;7.30;;;2.92;;
26413;SDS011;14108;53.668;10.288;2022-11-06T11:20:43;5.03;;;2.10;;
26413;SDS011;14108;53.668;10.288;2022-11-06T11:23:16;5.65;;;2.40;;
26413;SDS011;14108;53.668;10.288;2022-11-06T11:25:45;5.20;;;2.35;;
26413;SDS011;14108;53.668;10.288;2022-11-06T11:28:20;5.95;;;2.42;;
26413;SDS011;14108;53.668;10.288;2022-11-06T11:30:53;5.50;;;2.70;;
26413;SDS011;14108;53.668;10.288;2022-11-06T11:33:30;3.50;;;2.17;;
26413;SDS011;14108;53.668;10.288;2022-11-06T11:35:58;4.43;;;2.40;;
26413;SDS011;14108;53.668;10.288;2022-11-06T11:38:26;4.78;;;2.10;;
26413;SDS011;14108;53.668;10.288;2022-11-06T11:40:54;4.37;;;2.17;;
26413;SDS011;14108;53.668;10.288;2022-11-06T11:43:32;5.78;;;2.10;;
26413;SDS011;14108;53.668;10.288;2022-11-06T11:46:17;3.62;;;2.03;;
26413;SDS011;14108;53.668;10.288;2022-11-06T11:48:45;4.82;;;2.10;;
26413;SDS011;14108;53.668;10.288;2022-11-06T11:51:25;4.18;;;1.98;;
26413;SDS011;14108;53.668;10.288;2022-11-06T11:53:56;2.00;;;1.80;;
26413;SDS011;14108;53.668;10.288;2022-11-06T11:56:27;5.37;;;2.37;;
26413;SDS011;14108;53.668;10.288;2022-11-06T11:58:55;3.60;;;1.85;;
26413;SDS011;14108;53.668;10.288;2022-11-06T12:01:32;3.55;;;2.03;;
26413;SDS011;14108;53.668;10.288;2022-11-06T12:04:07;5.70;;;2.10;;
26413;SDS011;14108;53.668;10.288;2022-11-06T12:06:48;5.60;;;2.08;;
26413;SDS011;14108;53.668;10.288;2022-11-06T12:09:18;3.20;;;1.70;;
26413;SDS011;14108;53.668;10.288;2022-11-06T12:11:46;4.12;;;1.48;;
26413;SDS011;14108;53.668;10.288;2022-11-06T12:17:07;4.70;;;2.00;;
26413;SDS011;14108;53.668;10.288;2022-11-06T12:19:40;4.25;;;1.87;;
26413;SDS011;14108;53.668;10.288;2022-11-06T12:24:45;4.35;;;1.95;;
26413;SDS011;14108;53.668;10.288;2022-11-06T12:27:17;4.82;;;1.85;;
26413;SDS011;14108;53.668;10.288;2022-11-06T12:29:48;6.90;;;1.98;;
26413;SDS011;14108;53.668;10.288;2022-11-06T12:32:25;4.80;;;1.90;;
26413;SDS011;14108;53.668;10.288;2022-11-06T12:35:04;3.58;;;1.70;;
26413;SDS011;14108;53.668;10.288;2022-11-06T12:37:42;4.47;;;1.95;;
26413;SDS011;14108;53.668;10.288;2022-11-06T12:40:18;4.15;;;1.70;;
26413;SDS011;14108;53.668;10.288;2022-11-06T12:42:52;2.62;;;1.80;;
26413;SDS011;14108;53.668;10.288;2022-11-06T12:49:15;4.72;;;1.73;;
26413;SDS011;14108;53.668;10.288;2022-11-06T12:51:54;3.05;;;1.40;;
26413;SDS011;14108;53.668;10.288;2022-11-06T12:54:46;2.75;;;1.62;;
26413;SDS011;14108;53.668;10.288;2022-11-06T12:57:26;2.85;;;1.67;;
26413;SDS011;14108;53.668;10.288;2022-11-06T13:00:07;3.62;;;1.65;;
26413;SDS011;14108;53.668;10.288;2022-11-06T13:05:15;5.70;;;2.00;;
26413;SDS011;14108;53.668;10.288;2022-11-06T13:07:57;4.12;;;1.60;;
26413;SDS011;14108;53.668;10.288;2022-11-06T13:10:44;2.78;;;1.50;;
26413;SDS011;14108;53.668;10.288;2022-11-06T13:13:27;2.92;;;1.60;;
26413;SDS011;14108;53.668;10.288;2022-11-06T13:16:05;4.03;;;1.90;;
26413;SDS011;14108;53.668;10.288;2022-11-06T13:18:40;4.40;;;1.80;;
26413;SDS011;14108;53.668;10.288;2022-11-06T13:21:11;3.53;;;1.65;;
26413;SDS011;14108;53.668;10.288;2022-11-06T13:23:47;3.00;;;1.92;;
26413;SDS011;14108;53.668;10.288;2022-11-06T13:26:18;1.85;;;1.55;;
26413;SDS011;14108;53.668;10.288;2022-11-06T13:28:58;3.37;;;1.52;;
26413;SDS011;14108;53.668;10.288;2022-11-06T13:31:29;4.20;;;2.05;;
26413;SDS011;14108;53.668;10.288;2022-11-06T13:34:02;3.35;;;1.80;;
26413;SDS011;14108;53.668;10.288;2022-11-06T13:39:10;3.10;;;1.67;;
26413;SDS011;14108;53.668;10.288;2022-11-06T13:41:44;4.95;;;1.62;;
26413;SDS011;14108;53.668;10.288;2022-11-06T13:44:12;3.47;;;1.92;;
26413;SDS011;14108;53.668;10.288;2022-11-06T13:46:45;2.95;;;1.67;;
26413;SDS011;14108;53.668;10.288;2022-11-06T13:49:21;3.87;;;1.60;;
26413;SDS011;14108;53.668;10.288;2022-11-06T13:51:56;4.72;;;2.00;;
26413;SDS011;14108;53.668;10.288;2022-11-06T13:54:29;2.60;;;1.70;;
26413;SDS011;14108;53.668;10.288;2022-11-06T13:57:27;3.60;;;2.10;;
26413;SDS011;14108;53.668;10.288;2022-11-06T14:00:17;3.58;;;2.17;;
26413;SDS011;14108;53.668;10.288;2022-11-06T14:02:58;3.87;;;1.90;;
26413;SDS011;14108;53.668;10.288;2022-11-06T14:05:51;5.07;;;2.13;;
26413;SDS011;14108;53.668;10.288;2022-11-06T14:08:23;4.37;;;2.33;;
26413;SDS011;14108;53.668;10.288;2022-11-06T14:10:54;3.10;;;2.22;;
26413;SDS011;14108;53.668;10.288;2022-11-06T14:13:26;5.90;;;2.47;;
26413;SDS011;14108;53.668;10.288;2022-11-06T14:15:59;5.60;;;2.05;;
26413;SDS011;14108;53.668;10.288;2022-11-06T14:18:28;4.20;;;2.30;;
26413;SDS011;14108;53.668;10.288;2022-11-06T14:23:53;3.08;;;2.40;;
26413;SDS011;14108;53.668;10.288;2022-11-06T14:26:37;3.45;;;1.87;;
26413;SDS011;14108;53.668;10.288;2022-11-06T14:35:47;5.30;;;1.85;;
26413;SDS011;14108;53.668;10.288;2022-11-06T14:38:35;3.75;;;2.25;;
26413;SDS011;14108;53.668;10.288;2022-11-06T14:44:21;3.35;;;2.08;;
26413;SDS011;14108;53.668;10.288;2022-11-06T14:47:20;3.80;;;2.17;;
26413;SDS011;14108;53.668;10.288;2022-11-06T14:49:59;2.58;;;2.08;;
26413;SDS011;14108;53.668;10.288;2022-11-06T14:52:29;4.25;;;2.25;;
26413;SDS011;14108;53.668;10.288;2022-11-06T14:55:10;3.70;;;2.03;;
26413;SDS011;14108;53.668;10.288;2022-11-06T14:57:53;5.90;;;2.70;;
26413;SDS011;14108;53.668;10.288;2022-11-06T15:00:34;6.15;;;3.15;;
26413;SDS011;14108;53.668;10.288;2022-11-06T15:03:18;3.45;;;2.12;;
26413;SDS011;14108;53.668;10.288;2022-11-06T15:05:49;3.20;;;2.25;;
26413;SDS011;14108;53.668;10.288;2022-11-06T15:17:20;3.53;;;2.30;;
26413;SDS011;14108;53.668;10.288;2022-11-06T15:19:52;4.07;;;2.35;;
26413;SDS011;14108;53.668;10.288;2022-11-06T15:22:26;5.03;;;2.50;;
26413;SDS011;14108;53.668;10.288;2022-11-06T15:25:00;3.60;;;2.40;;
26413;SDS011;14108;53.668;10.288;2022-11-06T15:30:13;5.95;;;2.62;;
26413;SDS011;14108;53.668;10.288;2022-11-06T15:32:43;2.85;;;2.05;;
26413;SDS011;14108;53.668;10.288;2022-11-06T15:35:12;5.47;;;2.30;;
26413;SDS011;14108;53.668;10.288;2022-11-06T15:37:43;4.53;;;2.10;;
26413;SDS011;14108;53.668;10.288;2022-11-06T15:40:27;3.55;;;2.53;;
26413;SDS011;14108;53.668;10.288;2022-11-06T15:42:57;6.03;;;2.37;;
26413;SDS011;14108;53.668;10.288;2022-11-06T15:45:30;4.05;;;2.42;;
26413;SDS011;14108;53.668;10.288;2022-11-06T15:47:59;4.05;;;2.30;;
26413;SDS011;14108;53.668;10.288;2022-11-06T15:50:28;8.60;;;2.78;;
26413;SDS011;14108;53.668;10.288;2022-11-06T15:53:08;3.45;;;2.17;;
26413;SDS011;14108;53.668;10.288;2022-11-06T15:55:46;5.53;;;2.10;;
26413;SDS011;14108;53.668;10.288;2022-11-06T15:58:23;3.00;;;2.30;;
26413;SDS011;14108;53.668;10.288;2022-11-06T16:00:55;6.95;;;2.60;;
26413;SDS011;14108;53.668;10.288;2022-11-06T16:03:24;5.68;;;2.10;;
26413;SDS011;14108;53.668;10.288;2022-11-06T16:05:53;4.55;;;2.37;;
26413;SDS011;14108;53.668;10.288;2022-11-06T16:08:23;5.80;;;2.28;;
26413;SDS011;14108;53.668;10.288;2022-11-06T16:10:53;5.62;;;2.65;;
26413;SDS011;14108;53.668;10.288;2022-11-06T16:13:22;2.97;;;2.15;;